createdAt,value
2022-12-05T00:01:32.199Z,3.98
2022-12-05T00:04:00.353Z,3.92
2022-12-05T00:06:27.724Z,3.94
2022-12-05T00:08:54.127Z,3.94
2022-12-05T00:11:22.278Z,3.95
2022-12-05T00:13:49.137Z,3.97
2022-12-05T00:16:18.412Z,3.92
2022-12-05T00:18:44.977Z,3.89
2022-12-05T00:21:16.973Z,3.86
2022-12-05T00:23:43.610Z,3.94
2022-12-05T00:26:10.070Z,4.05
2022-12-05T00:28:36.542Z,3.97
2022-12-05T00:31:03.989Z,3.98
2022-12-05T00:33:30.378Z,3.92
2022-12-05T00:36:10.291Z,3.95
2022-12-05T00:38:36.689Z,3.94
2022-12-05T00:41:04.454Z,3.95
2022-12-05T00:43:30.997Z,3.92
2022-12-05T00:46:01.385Z,3.97
2022-12-05T00:48:27.831Z,3.99
2022-12-05T00:51:07.555Z,3.97
2022-12-05T00:53:33.994Z,3.98
2022-12-05T00:56:12.090Z,3.96
2022-12-05T00:58:38.525Z,4.03
2022-12-05T01:01:09.800Z,4.02
2022-12-05T01:03:36.326Z,4.00
2022-12-05T01:06:02.839Z,3.96
2022-12-05T01:08:29.264Z,4.05
2022-12-05T01:10:55.773Z,4.06
2022-12-05T01:13:22.446Z,4.04
2022-12-05T01:15:48.849Z,4.06
2022-12-05T01:18:15.358Z,4.03
2022-12-05T01:20:42.374Z,4.02
2022-12-05T01:23:08.973Z,4.09
2022-12-05T01:25:35.379Z,4.11
2022-12-05T01:28:01.790Z,4.10
2022-12-05T01:30:28.182Z,4.05
2022-12-05T01:32:54.703Z,4.10
2022-12-05T01:35:21.090Z,4.08
2022-12-05T01:37:47.515Z,4.09
2022-12-05T01:40:13.922Z,4.09
2022-12-05T01:42:40.311Z,4.15
2022-12-05T01:45:15.642Z,4.16
2022-12-05T01:47:42.042Z,4.13
2022-12-05T01:50:08.823Z,4.14
2022-12-05T01:52:35.266Z,4.17
2022-12-05T01:55:06.605Z,4.19
2022-12-05T01:57:33.037Z,4.16
2022-12-05T02:00:02.499Z,4.26
2022-12-05T02:02:29.511Z,4.25
2022-12-05T02:05:05.980Z,4.29
2022-12-05T02:07:32.513Z,4.23
2022-12-05T02:09:59.360Z,4.23
2022-12-05T02:12:26.011Z,4.23
2022-12-05T02:15:20.323Z,4.21
2022-12-05T02:18:11.320Z,4.28
2022-12-05T02:20:40.864Z,4.25
2022-12-05T02:23:44.464Z,4.28
2022-12-05T02:26:31.263Z,4.25
2022-12-05T02:29:35.240Z,4.21
2022-12-05T02:32:12.398Z,4.22
2022-12-05T02:35:03.813Z,4.18
2022-12-05T02:37:35.001Z,4.21
2022-12-05T02:40:11.757Z,4.26
2022-12-05T02:42:50.530Z,4.32
2022-12-05T02:45:17.475Z,4.34
2022-12-05T02:47:50.287Z,4.31
2022-12-05T02:50:19.992Z,4.32
2022-12-05T02:52:47.442Z,4.31
2022-12-05T02:55:14.478Z,4.28
2022-12-05T02:57:40.973Z,4.37
2022-12-05T03:00:08.069Z,4.37
2022-12-05T03:02:34.602Z,4.40
2022-12-05T03:05:16.388Z,4.43
2022-12-05T03:07:42.913Z,4.38
2022-12-05T03:10:09.694Z,4.37
2022-12-05T03:12:38.682Z,4.32
2022-12-05T03:15:28.904Z,4.33
2022-12-05T03:18:11.278Z,4.31
2022-12-05T03:20:42.545Z,4.30
2022-12-05T03:23:11.415Z,4.27
2022-12-05T03:25:57.883Z,4.33
2022-12-05T03:28:28.919Z,4.34
2022-12-05T03:30:55.625Z,4.33
2022-12-05T03:33:23.983Z,4.30
2022-12-05T03:36:06.298Z,4.32
2022-12-05T03:38:44.356Z,4.33
2022-12-05T03:41:16.695Z,4.37
2022-12-05T03:44:07.006Z,4.43
2022-12-05T03:46:54.130Z,4.39
2022-12-05T03:49:33.908Z,4.37
2022-12-05T03:52:13.012Z,4.34
2022-12-05T03:54:45.729Z,4.39
2022-12-05T03:57:48.070Z,4.37
2022-12-05T04:00:16.276Z,4.34
2022-12-05T04:02:47.806Z,4.39
2022-12-05T04:05:35.522Z,4.42
2022-12-05T04:08:03.650Z,4.44
2022-12-05T04:10:32.320Z,4.41
2022-12-05T04:13:00.331Z,4.43
2022-12-05T04:15:29.246Z,4.49
2022-12-05T04:17:59.626Z,4.50
2022-12-05T04:20:37.562Z,4.48
2022-12-05T04:23:04.058Z,4.45
2022-12-05T04:25:37.229Z,4.49
2022-12-05T04:28:21.708Z,4.54
2022-12-05T04:30:56.651Z,4.48
2022-12-05T04:33:25.934Z,4.45
2022-12-05T04:35:54.561Z,4.54
2022-12-05T04:38:24.730Z,4.49
2022-12-05T04:40:55.701Z,4.45
2022-12-05T04:43:22.106Z,4.43
2022-12-05T04:45:48.741Z,4.45
2022-12-05T04:48:15.897Z,4.39
2022-12-05T04:50:42.289Z,4.37
2022-12-05T04:53:09.057Z,4.38
2022-12-05T04:55:35.477Z,4.45
2022-12-05T04:58:10.876Z,4.40
2022-12-05T05:00:46.810Z,4.38
2022-12-05T05:03:21.321Z,4.35
2022-12-05T05:05:48.865Z,4.31
2022-12-05T05:08:19.837Z,4.30
2022-12-05T05:10:55.114Z,4.31
2022-12-05T05:13:21.526Z,4.33
2022-12-05T05:15:47.990Z,4.36
2022-12-05T05:18:14.433Z,4.33
2022-12-05T05:20:40.807Z,4.32
2022-12-05T05:23:07.195Z,4.30
2022-12-05T05:25:33.633Z,4.29
2022-12-05T05:28:00.041Z,4.33
2022-12-05T05:30:26.562Z,4.31
2022-12-05T05:32:53.080Z,4.33
2022-12-05T05:35:19.549Z,4.32
2022-12-05T05:37:45.989Z,4.30
2022-12-05T05:40:12.676Z,4.27
2022-12-05T05:42:43.552Z,4.28
2022-12-05T05:45:10.806Z,4.27
2022-12-05T05:47:37.209Z,4.25
2022-12-05T05:50:04.332Z,4.31
2022-12-05T05:52:32.922Z,4.27
2022-12-05T05:54:59.294Z,4.34
2022-12-05T05:57:25.672Z,4.32
2022-12-05T05:59:52.161Z,4.30
2022-12-05T06:02:18.596Z,4.30
2022-12-05T06:04:45.051Z,4.34
2022-12-05T06:07:11.463Z,4.31
2022-12-05T06:09:37.897Z,4.26
2022-12-05T06:12:04.541Z,4.25
2022-12-05T06:14:31.099Z,4.28
2022-12-05T06:16:57.581Z,4.24
2022-12-05T06:19:24.052Z,4.24
2022-12-05T06:21:50.521Z,4.20
2022-12-05T06:24:17.628Z,4.19
2022-12-05T06:26:44.018Z,4.24
2022-12-05T06:29:10.740Z,4.23
2022-12-05T06:31:37.222Z,4.24
2022-12-05T06:34:03.825Z,4.18
2022-12-05T06:36:30.280Z,4.23
2022-12-05T06:38:57.332Z,4.23
2022-12-05T06:41:23.975Z,4.17
2022-12-05T06:44:00.100Z,4.16
2022-12-05T06:46:28.276Z,4.17
2022-12-05T06:48:55.848Z,4.15
2022-12-05T06:51:22.259Z,4.13
2022-12-05T06:53:48.703Z,4.14
2022-12-05T06:56:16.295Z,4.12
2022-12-05T06:58:43.419Z,4.24
2022-12-05T07:01:13.736Z,4.16
2022-12-05T07:03:40.418Z,4.14
2022-12-05T07:06:07.297Z,4.07
2022-12-05T07:08:34.015Z,4.00
2022-12-05T07:11:00.406Z,4.08
2022-12-05T07:13:26.838Z,4.10
2022-12-05T07:15:53.238Z,4.11
2022-12-05T07:18:19.641Z,4.13
2022-12-05T07:21:10.822Z,4.15
2022-12-05T07:23:32.542Z,4.03
2022-12-05T07:25:58.927Z,3.96
2022-12-05T07:28:25.349Z,4.02
2022-12-05T07:31:05.626Z,3.98
2022-12-05T07:33:32.088Z,3.94
2022-12-05T07:36:06.509Z,3.94
2022-12-05T07:38:33.055Z,3.96
2022-12-05T07:40:59.484Z,3.92
2022-12-05T07:43:25.874Z,3.91
2022-12-05T07:45:52.353Z,3.90
2022-12-05T07:48:19.148Z,3.94
2022-12-05T07:50:45.686Z,3.90
2022-12-05T07:53:12.077Z,3.87
2022-12-05T07:55:38.464Z,3.86
2022-12-05T07:58:04.936Z,3.87
2022-12-05T08:00:31.347Z,3.86
2022-12-05T08:02:57.883Z,3.83
2022-12-05T08:05:24.335Z,3.82
2022-12-05T08:07:50.849Z,3.76
2022-12-05T08:10:17.292Z,3.73
2022-12-05T08:12:43.705Z,3.71
2022-12-05T08:15:10.274Z,3.71
2022-12-05T08:17:36.695Z,3.72
2022-12-05T08:20:03.098Z,3.67
2022-12-05T08:22:29.514Z,3.68
2022-12-05T08:24:56.511Z,3.73
2022-12-05T08:27:22.942Z,3.71
2022-12-05T08:29:49.354Z,3.71
2022-12-05T08:32:15.754Z,3.69
2022-12-05T08:34:42.162Z,3.64
2022-12-05T08:37:08.542Z,3.62
2022-12-05T08:39:38.463Z,3.56
2022-12-05T08:42:05.474Z,3.52
2022-12-05T08:44:31.908Z,3.51
2022-12-05T08:46:58.313Z,3.49
2022-12-05T08:49:25.774Z,3.53
2022-12-05T08:51:54.735Z,3.53
2022-12-05T08:54:21.120Z,3.56
2022-12-05T08:56:50.644Z,3.55
2022-12-05T08:59:17.075Z,3.54
2022-12-05T09:01:43.552Z,3.57
2022-12-05T09:04:09.945Z,3.60
2022-12-05T09:06:36.593Z,3.62
2022-12-05T09:09:06.155Z,3.61
2022-12-05T09:11:34.566Z,3.59
2022-12-05T09:14:01.105Z,3.56
2022-12-05T09:16:37.131Z,3.55
2022-12-05T09:19:05.026Z,3.50
2022-12-05T09:21:31.807Z,3.38
2022-12-05T09:23:58.955Z,3.43
2022-12-05T09:26:25.846Z,3.45
2022-12-05T09:28:52.466Z,3.42
2022-12-05T09:31:25.249Z,3.41
2022-12-05T09:33:51.962Z,3.38
2022-12-05T09:36:23.025Z,3.35
2022-12-05T09:38:49.478Z,3.35
2022-12-05T09:41:37.521Z,3.38
2022-12-05T09:44:05.685Z,3.39
2022-12-05T09:46:35.838Z,3.38
2022-12-05T09:49:02.927Z,3.36
2022-12-05T09:51:29.306Z,3.36
2022-12-05T09:53:55.739Z,3.37
2022-12-05T09:56:32.155Z,3.37
2022-12-05T09:58:58.610Z,3.35
2022-12-05T10:01:43.715Z,3.32
2022-12-05T10:04:21.988Z,3.28
2022-12-05T10:07:19.006Z,3.28
2022-12-05T10:09:57.644Z,3.35
2022-12-05T10:12:47.751Z,3.33
2022-12-05T10:15:29.806Z,3.29
2022-12-05T10:18:50.789Z,3.28
2022-12-05T10:21:21.417Z,3.28
2022-12-05T10:24:04.982Z,3.27
2022-12-05T10:26:37.004Z,3.33
2022-12-05T10:29:06.311Z,3.31
2022-12-05T10:31:34.613Z,3.28
2022-12-05T10:34:27.023Z,3.28
2022-12-05T10:37:13.926Z,3.26
2022-12-05T10:39:40.349Z,3.20
2022-12-05T10:42:06.870Z,3.22
2022-12-05T10:44:33.433Z,3.25
2022-12-05T10:46:59.889Z,3.27
2022-12-05T10:49:26.301Z,3.22
2022-12-05T10:51:52.747Z,3.17
2022-12-05T10:54:25.866Z,3.22
2022-12-05T10:56:53.043Z,3.19
2022-12-05T10:59:26.882Z,3.22
2022-12-05T11:01:54.383Z,3.23
2022-12-05T11:04:30.851Z,3.26
2022-12-05T11:06:58.277Z,3.30
2022-12-05T11:09:28.838Z,3.31
2022-12-05T11:12:09.310Z,3.32
2022-12-05T11:14:35.718Z,3.29
2022-12-05T11:17:03.273Z,3.31
2022-12-05T11:19:35.041Z,3.32
2022-12-05T11:22:01.533Z,3.30
2022-12-05T11:24:38.146Z,3.31
2022-12-05T11:27:16.687Z,3.29
2022-12-05T11:30:03.698Z,3.23
2022-12-05T11:32:33.440Z,3.16
2022-12-05T11:35:11.898Z,3.15
2022-12-05T11:37:41.217Z,3.18
2022-12-05T11:40:19.915Z,3.20
2022-12-05T11:43:06.719Z,3.19
2022-12-05T11:46:06.304Z,3.15
2022-12-05T11:48:40.114Z,3.14
2022-12-05T11:51:21.660Z,3.16
2022-12-05T11:53:57.067Z,3.17
2022-12-05T11:56:38.978Z,3.15
2022-12-05T11:59:08.274Z,3.15
2022-12-05T12:01:57.023Z,3.16
2022-12-05T12:04:32.515Z,3.19
2022-12-05T12:07:14.069Z,3.21
2022-12-05T12:09:44.934Z,3.18
2022-12-05T12:12:30.236Z,3.13
2022-12-05T12:15:16.404Z,3.09
2022-12-05T12:18:18.391Z,3.07
2022-12-05T12:21:08.890Z,3.04
2022-12-05T12:23:50.688Z,3.09
2022-12-05T12:26:32.215Z,3.06
2022-12-05T12:29:10.716Z,3.05
2022-12-05T12:31:53.402Z,3.05
2022-12-05T12:34:29.347Z,3.05
2022-12-05T12:36:58.738Z,3.05
2022-12-05T12:39:31.552Z,3.01
2022-12-05T12:42:26.056Z,3.07
2022-12-05T12:45:10.722Z,3.15
2022-12-05T12:47:42.940Z,3.18
2022-12-05T12:50:18.186Z,3.19
2022-12-05T12:52:50.597Z,3.19
2022-12-05T12:55:38.241Z,3.16
2022-12-05T12:58:12.912Z,3.19
2022-12-05T13:00:54.333Z,3.16
2022-12-05T13:03:27.387Z,3.10
2022-12-05T13:06:00.435Z,3.09
2022-12-05T13:08:54.560Z,3.09
2022-12-05T13:11:20.971Z,3.07
2022-12-05T13:13:50.181Z,3.03
2022-12-05T13:16:23.622Z,3.03
2022-12-05T13:18:50.039Z,3.07
2022-12-05T13:21:16.412Z,3.06
2022-12-05T13:23:48.106Z,3.08
2022-12-05T13:26:14.476Z,3.11
2022-12-05T13:29:01.567Z,3.07
2022-12-05T13:31:35.104Z,3.05
2022-12-05T13:34:01.614Z,3.05
2022-12-05T13:36:27.985Z,3.08
2022-12-05T13:38:59.031Z,3.06
2022-12-05T13:41:41.700Z,3.02
2022-12-05T13:44:08.098Z,3.05
2022-12-05T13:46:35.258Z,2.99
2022-12-05T13:49:06.925Z,3.02
2022-12-05T13:51:37.876Z,2.99
2022-12-05T13:54:17.146Z,3.03
2022-12-05T13:56:50.867Z,3.05
2022-12-05T13:59:59.261Z,3.07
2022-12-05T14:02:44.163Z,3.05
2022-12-05T14:05:13.630Z,3.03
2022-12-05T14:07:43.579Z,3.05
2022-12-05T14:10:34.486Z,3.02
2022-12-05T14:13:01.784Z,3.00
2022-12-05T14:15:34.537Z,2.97
2022-12-05T14:18:23.245Z,2.95
2022-12-05T14:21:15.956Z,2.96
2022-12-05T14:23:48.069Z,2.98
2022-12-05T14:26:32.623Z,2.99
2022-12-05T14:29:14.454Z,3.03
2022-12-05T14:32:03.957Z,3.02
2022-12-05T14:34:31.308Z,2.98
2022-12-05T14:37:06.531Z,2.98
2022-12-05T14:39:49.606Z,3.00
2022-12-05T14:42:50.420Z,3.00
2022-12-05T14:45:32.169Z,3.00
2022-12-05T14:47:59.077Z,2.99
2022-12-05T14:50:36.467Z,2.96
2022-12-05T14:53:28.871Z,2.95
2022-12-05T14:56:00.997Z,2.99
2022-12-05T14:58:45.994Z,2.97
2022-12-05T15:01:12.301Z,2.93
2022-12-05T15:03:40.226Z,2.91
2022-12-05T15:06:10.455Z,2.92
2022-12-05T15:08:44.876Z,2.91
2022-12-05T15:11:14.883Z,2.94
2022-12-05T15:13:41.622Z,2.94
2022-12-05T15:16:13.206Z,2.93
2022-12-05T15:18:45.656Z,2.88
2022-12-05T15:21:38.303Z,2.85
2022-12-05T15:24:05.523Z,2.84
2022-12-05T15:26:48.327Z,2.82
2022-12-05T15:29:21.011Z,2.79
2022-12-05T15:31:52.300Z,2.77
2022-12-05T15:34:26.443Z,2.82
2022-12-05T15:37:19.174Z,2.79
2022-12-05T15:40:09.582Z,2.73
2022-12-05T15:43:08.353Z,2.68
2022-12-05T15:45:35.057Z,2.64
2022-12-05T15:48:09.651Z,2.64
2022-12-05T15:50:41.820Z,2.62
2022-12-05T15:53:31.942Z,2.61
2022-12-05T15:56:06.409Z,2.59
2022-12-05T15:58:44.122Z,2.59
2022-12-05T16:01:12.875Z,2.57
2022-12-05T16:04:03.758Z,2.61
2022-12-05T16:06:50.375Z,2.61
2022-12-05T16:09:21.355Z,2.58
2022-12-05T16:11:58.954Z,2.56
2022-12-05T16:14:58.509Z,2.55
2022-12-05T16:17:18.062Z,2.54
2022-12-05T16:19:44.462Z,2.54
2022-12-05T16:22:13.852Z,2.50
2022-12-05T16:24:45.554Z,2.51
2022-12-05T16:27:21.854Z,2.54
2022-12-05T16:30:11.828Z,2.58
2022-12-05T16:32:40.219Z,2.61
2022-12-05T16:35:32.759Z,2.63
2022-12-05T16:38:11.048Z,2.61
2022-12-05T16:40:38.825Z,2.58
2022-12-05T16:43:07.177Z,2.61
2022-12-05T16:45:38.882Z,2.63
2022-12-05T16:48:22.650Z,2.65
2022-12-05T16:50:50.233Z,2.63
2022-12-05T16:53:18.816Z,2.59
2022-12-05T16:55:45.220Z,2.57
2022-12-05T16:58:14.158Z,2.56
2022-12-05T17:00:40.574Z,2.59
2022-12-05T17:03:32.988Z,2.61
2022-12-05T17:05:57.959Z,2.58
2022-12-05T17:08:24.872Z,2.53
2022-12-05T17:10:53.939Z,2.52
2022-12-05T17:13:20.354Z,2.52
2022-12-05T17:15:46.780Z,2.50
2022-12-05T17:18:14.595Z,2.50
2022-12-05T17:20:41.778Z,2.53
2022-12-05T17:23:14.142Z,2.53
2022-12-05T17:25:46.386Z,2.53
2022-12-05T17:28:12.832Z,2.51
2022-12-05T17:30:39.285Z,2.51
2022-12-05T17:33:05.920Z,2.51
2022-12-05T17:35:32.470Z,2.52
2022-12-05T17:37:58.852Z,2.54
2022-12-05T17:40:25.256Z,2.54
2022-12-05T17:42:51.652Z,2.52
2022-12-05T17:45:18.111Z,2.53
2022-12-05T17:47:44.490Z,2.53
2022-12-05T17:50:15.276Z,2.55
2022-12-05T17:52:41.963Z,2.54
2022-12-05T17:55:16.298Z,2.54
2022-12-05T17:57:43.127Z,2.54
2022-12-05T18:00:10.061Z,2.54
2022-12-05T18:02:36.471Z,2.62
2022-12-05T18:05:03.082Z,2.66
2022-12-05T18:07:29.466Z,2.66
2022-12-05T18:09:55.930Z,2.71
2022-12-05T18:12:22.375Z,2.68
2022-12-05T18:14:48.750Z,2.66
2022-12-05T18:17:15.165Z,2.61
2022-12-05T18:19:41.582Z,2.57
2022-12-05T18:22:07.979Z,2.55
2022-12-05T18:24:34.393Z,2.53
2022-12-05T18:27:00.802Z,2.53
2022-12-05T18:29:27.203Z,2.49
2022-12-05T18:31:56.733Z,2.48
2022-12-05T18:34:23.187Z,2.51
2022-12-05T18:36:49.656Z,2.52
2022-12-05T18:39:16.077Z,2.52
2022-12-05T18:41:42.472Z,2.51
2022-12-05T18:44:09.178Z,2.54
2022-12-05T18:46:36.663Z,2.56
2022-12-05T18:49:03.862Z,2.61
2022-12-05T18:51:30.329Z,2.62
2022-12-05T18:53:56.738Z,2.60
2022-12-05T18:56:28.210Z,2.62
2022-12-05T18:58:55.290Z,2.68
2022-12-05T19:01:21.751Z,2.79
2022-12-05T19:03:48.248Z,2.82
2022-12-05T19:06:16.424Z,2.81
2022-12-05T19:08:43.026Z,2.74
2022-12-05T19:11:11.515Z,2.67
2022-12-05T19:13:37.910Z,2.64
2022-12-05T19:16:04.939Z,2.63
2022-12-05T19:18:31.404Z,2.60
2022-12-05T19:20:57.848Z,2.58
2022-12-05T19:23:25.782Z,2.62
2022-12-05T19:25:58.959Z,2.63
2022-12-05T19:28:25.354Z,2.70
2022-12-05T19:31:05.296Z,2.73
2022-12-05T19:33:33.111Z,2.77
2022-12-05T19:36:17.069Z,2.81
2022-12-05T19:38:45.658Z,2.80
2022-12-05T19:41:17.117Z,2.75
2022-12-05T19:43:44.820Z,2.72
2022-12-05T19:46:18.874Z,2.69
2022-12-05T19:48:45.782Z,2.73
2022-12-05T19:51:12.263Z,2.72
2022-12-05T19:53:39.871Z,2.67
2022-12-05T19:56:19.548Z,2.63
2022-12-05T19:58:46.483Z,2.67
2022-12-05T20:01:14.224Z,2.72
2022-12-05T20:03:41.243Z,2.73
2022-12-05T20:06:08.309Z,2.70
2022-12-05T20:08:35.050Z,2.69
2022-12-05T20:11:09.563Z,2.68
2022-12-05T20:13:51.840Z,2.67
2022-12-05T20:16:19.217Z,2.66
2022-12-05T20:18:45.892Z,2.64
2022-12-05T20:21:13.190Z,2.61
2022-12-05T20:23:39.763Z,2.59
2022-12-05T20:26:14.184Z,2.58
2022-12-05T20:28:40.779Z,2.55
2022-12-05T20:31:11.381Z,2.55
2022-12-05T20:33:37.898Z,2.55
2022-12-05T20:36:06.278Z,2.59
2022-12-05T20:38:32.833Z,2.66
2022-12-05T20:41:03.983Z,2.71
2022-12-05T20:43:30.422Z,2.75
2022-12-05T20:46:19.110Z,2.68
2022-12-05T20:48:47.658Z,2.75
2022-12-05T20:51:18.066Z,2.82
2022-12-05T20:53:44.830Z,2.84
2022-12-05T20:56:15.671Z,2.87
2022-12-05T20:58:44.235Z,2.83
2022-12-05T21:01:11.008Z,2.83
2022-12-05T21:03:40.379Z,2.85
2022-12-05T21:06:14.293Z,2.89
2022-12-05T21:08:40.702Z,2.90
2022-12-05T21:11:07.181Z,2.94
2022-12-05T21:13:33.629Z,3.00
2022-12-05T21:16:12.933Z,3.03
2022-12-05T21:18:40.721Z,3.03
2022-12-05T21:21:08.851Z,3.04
2022-12-05T21:23:37.561Z,3.06
2022-12-05T21:26:08.290Z,3.08
2022-12-05T21:28:35.382Z,3.06
2022-12-05T21:31:17.873Z,3.08
2022-12-05T21:33:47.341Z,3.01
2022-12-05T21:36:13.749Z,2.98
2022-12-05T21:38:40.160Z,2.96
2022-12-05T21:41:06.563Z,2.99
2022-12-05T21:43:33.388Z,2.99
2022-12-05T21:46:01.167Z,2.97
2022-12-05T21:48:30.891Z,2.99
2022-12-05T21:50:57.290Z,3.02
2022-12-05T21:53:23.803Z,3.01
2022-12-05T21:56:07.047Z,3.02
2022-12-05T21:58:36.821Z,3.03
2022-12-05T22:01:06.518Z,3.03
2022-12-05T22:03:32.981Z,3.02
2022-12-05T22:06:01.012Z,3.04
2022-12-05T22:08:28.932Z,3.04
2022-12-05T22:10:55.331Z,3.06
2022-12-05T22:13:21.742Z,3.06
2022-12-05T22:15:48.565Z,3.07
2022-12-05T22:18:15.022Z,3.06
2022-12-05T22:20:41.422Z,3.08
2022-12-05T22:23:11.202Z,3.13
2022-12-05T22:25:40.219Z,3.11
2022-12-05T22:28:06.600Z,3.10
2022-12-05T22:30:32.995Z,3.09
2022-12-05T22:32:59.390Z,3.08
2022-12-05T22:35:25.825Z,3.08
2022-12-05T22:37:53.669Z,3.08
2022-12-05T22:40:20.065Z,3.07
2022-12-05T22:42:46.450Z,3.09
2022-12-05T22:45:13.093Z,3.08
2022-12-05T22:47:39.473Z,3.12
2022-12-05T22:50:06.470Z,3.09
2022-12-05T22:52:32.900Z,3.06
2022-12-05T22:54:59.494Z,3.04
2022-12-05T22:57:26.057Z,3.02
2022-12-05T22:59:52.443Z,3.03
2022-12-05T23:02:18.888Z,3.06
2022-12-05T23:04:45.281Z,3.09
2022-12-05T23:07:11.685Z,3.09
2022-12-05T23:09:38.062Z,3.11
2022-12-05T23:12:04.653Z,3.10
2022-12-05T23:14:31.041Z,3.11
2022-12-05T23:16:57.438Z,3.13
2022-12-05T23:19:23.883Z,3.13
2022-12-05T23:21:50.253Z,3.14
2022-12-05T23:24:16.648Z,3.07
2022-12-05T23:26:43.906Z,3.10
2022-12-05T23:29:10.627Z,3.09
2022-12-05T23:31:37.059Z,3.09
2022-12-05T23:34:04.234Z,3.05
2022-12-05T23:36:31.798Z,3.02
2022-12-05T23:38:58.227Z,2.99
2022-12-05T23:41:24.603Z,3.00
2022-12-05T23:43:51.247Z,3.04
2022-12-05T23:46:19.328Z,3.03
2022-12-05T23:48:45.775Z,3.03
2022-12-05T23:51:22.843Z,3.03
2022-12-05T23:53:52.964Z,3.05
2022-12-05T23:56:21.078Z,3.05
2022-12-05T23:58:47.463Z,3.09
